sensor_id;sensor_type;location;lat;lon;timestamp;temperature;humidity
54946;DHT22;40846;44.788;20.486;2023-05-24T00:00:15;538.30;2406.40
54946;DHT22;40846;44.788;20.486;2023-05-24T00:02:42;538.10;2406.40
54946;DHT22;40846;44.788;20.486;2023-05-24T00:05:10;537.80;2406.40
54946;DHT22;40846;44.788;20.486;2023-05-24T00:07:36;537.70;2406.40
54946;DHT22;40846;44.788;20.486;2023-05-24T02:16:51;512.10;2380.80
54946;DHT22;40846;44.788;20.486;2023-05-24T02:19:17;487.10;2380.80
54946;DHT22;40846;44.788;20.486;2023-05-24T02:21:43;487.00;2380.80
54946;DHT22;40846;44.788;20.486;2023-05-24T02:26:37;487.30;2380.80
54946;DHT22;40846;44.788;20.486;2023-05-24T02:29:03;487.10;2380.80
54946;DHT22;40846;44.788;20.486;2023-05-24T02:31:29;487.00;2380.80
54946;DHT22;40846;44.788;20.486;2023-05-24T02:33:56;486.80;2380.80
54946;DHT22;40846;44.788;20.486;2023-05-24T02:36:24;487.00;2380.80
54946;DHT22;40846;44.788;20.486;2023-05-24T02:38:50;487.10;2380.80
54946;DHT22;40846;44.788;20.486;2023-05-24T02:41:16;487.00;2380.80
54946;DHT22;40846;44.788;20.486;2023-05-24T02:43:46;486.70;2380.80
54946;DHT22;40846;44.788;20.486;2023-05-24T02:46:13;486.80;2380.80
54946;DHT22;40846;44.788;20.486;2023-05-24T02:48:39;486.80;2380.80
54946;DHT22;40846;44.788;20.486;2023-05-24T02:51:05;486.80;2380.80
54946;DHT22;40846;44.788;20.486;2023-05-24T02:53:32;486.90;2380.80
54946;DHT22;40846;44.788;20.486;2023-05-24T02:56:01;486.90;2380.80
54946;DHT22;40846;44.788;20.486;2023-05-24T02:58:27;487.00;2380.80
54946;DHT22;40846;44.788;20.486;2023-05-24T03:00:53;487.00;2380.80
54946;DHT22;40846;44.788;20.486;2023-05-24T03:03:19;486.90;2380.80
54946;DHT22;40846;44.788;20.486;2023-05-24T03:05:45;486.90;2380.80
54946;DHT22;40846;44.788;20.486;2023-05-24T03:08:11;486.90;2380.80
54946;DHT22;40846;44.788;20.486;2023-05-24T03:10:36;487.00;2380.80
54946;DHT22;40846;44.788;20.486;2023-05-24T03:13:02;487.00;2380.80
54946;DHT22;40846;44.788;20.486;2023-05-24T03:15:28;486.90;2380.80
54946;DHT22;40846;44.788;20.486;2023-05-24T03:17:54;486.90;2380.80
54946;DHT22;40846;44.788;20.486;2023-05-24T03:20:20;486.80;2380.80
54946;DHT22;40846;44.788;20.486;2023-05-24T03:22:47;486.80;2380.80
54946;DHT22;40846;44.788;20.486;2023-05-24T03:25:13;487.00;2380.80
54946;DHT22;40846;44.788;20.486;2023-05-24T03:27:39;486.80;2380.80
54946;DHT22;40846;44.788;20.486;2023-05-24T03:30:05;486.70;2380.80
54946;DHT22;40846;44.788;20.486;2023-05-24T03:32:31;486.80;2380.80
54946;DHT22;40846;44.788;20.486;2023-05-24T04:36:04;512.10;2380.80
54946;DHT22;40846;44.788;20.486;2023-05-24T04:38:30;487.30;2380.80
54946;DHT22;40846;44.788;20.486;2023-05-24T04:40:59;487.10;2380.80
54946;DHT22;40846;44.788;20.486;2023-05-24T04:43:25;487.20;2380.80
54946;DHT22;40846;44.788;20.486;2023-05-24T04:45:52;487.30;2380.80
54946;DHT22;40846;44.788;20.486;2023-05-24T04:48:21;487.30;2380.80
54946;DHT22;40846;44.788;20.486;2023-05-24T04:50:55;512.10;2380.80
54946;DHT22;40846;44.788;20.486;2023-05-24T04:55:48;512.80;2380.80
54946;DHT22;40846;44.788;20.486;2023-05-24T04:58:15;512.80;2380.80
54946;DHT22;40846;44.788;20.486;2023-05-24T05:00:41;512.60;2380.80
54946;DHT22;40846;44.788;20.486;2023-05-24T05:03:08;512.60;2380.80
54946;DHT22;40846;44.788;20.486;2023-05-24T05:05:34;512.80;2380.80
54946;DHT22;40846;44.788;20.486;2023-05-24T05:08:00;512.80;2380.80
54946;DHT22;40846;44.788;20.486;2023-05-24T05:10:27;512.90;2380.80
54946;DHT22;40846;44.788;20.486;2023-05-24T05:39:47;538.50;2406.40
54946;DHT22;40846;44.788;20.486;2023-05-24T05:42:13;538.30;2406.40
54946;DHT22;40846;44.788;20.486;2023-05-24T05:44:38;538.30;2406.40
54946;DHT22;40846;44.788;20.486;2023-05-24T05:47:04;563.30;2432.00
54946;DHT22;40846;44.788;20.486;2023-05-24T05:49:31;563.20;2432.00
54946;DHT22;40846;44.788;20.486;2023-05-24T05:52:04;563.40;2432.00
54946;DHT22;40846;44.788;20.486;2023-05-24T05:54:30;563.30;2432.00
54946;DHT22;40846;44.788;20.486;2023-05-24T05:59:22;564.00;2432.00
54946;DHT22;40846;44.788;20.486;2023-05-24T06:01:51;563.90;2432.00
54946;DHT22;40846;44.788;20.486;2023-05-24T06:04:17;564.00;2432.00
54946;DHT22;40846;44.788;20.486;2023-05-24T06:06:43;588.80;2432.00
54946;DHT22;40846;44.788;20.486;2023-05-24T06:09:12;588.90;2432.00
54946;DHT22;40846;44.788;20.486;2023-05-24T06:11:38;588.80;2432.00
54946;DHT22;40846;44.788;20.486;2023-05-24T06:14:07;589.30;2432.00
54946;DHT22;40846;44.788;20.486;2023-05-24T06:16:33;589.00;2432.00
54946;DHT22;40846;44.788;20.486;2023-05-24T06:18:59;589.20;2432.00
54946;DHT22;40846;44.788;20.486;2023-05-24T06:33:38;614.70;2432.00
54946;DHT22;40846;44.788;20.486;2023-05-24T06:38:31;614.70;2432.00
54946;DHT22;40846;44.788;20.486;2023-05-24T06:40:57;614.50;2432.00
54946;DHT22;40846;44.788;20.486;2023-05-24T06:43:23;614.40;2432.00
54946;DHT22;40846;44.788;20.486;2023-05-24T06:45:48;614.40;2432.00
54946;DHT22;40846;44.788;20.486;2023-05-24T06:48:14;614.40;2432.00
54946;DHT22;40846;44.788;20.486;2023-05-24T06:50:40;614.40;2432.00
54946;DHT22;40846;44.788;20.486;2023-05-24T06:53:06;614.80;2432.00
54946;DHT22;40846;44.788;20.486;2023-05-24T06:55:32;614.60;2432.00
54946;DHT22;40846;44.788;20.486;2023-05-24T07:02:50;615.10;2432.00
54946;DHT22;40846;44.788;20.486;2023-05-24T07:47:31;564.10;2432.00
54946;DHT22;40846;44.788;20.486;2023-05-24T07:49:57;563.70;2432.00
54946;DHT22;40846;44.788;20.486;2023-05-24T07:52:23;563.50;2432.00
54946;DHT22;40846;44.788;20.486;2023-05-24T08:38:55;588.80;2432.00
54946;DHT22;40846;44.788;20.486;2023-05-24T08:41:22;564.00;2432.00
54946;DHT22;40846;44.788;20.486;2023-05-24T08:43:48;588.80;2432.00
54946;DHT22;40846;44.788;20.486;2023-05-24T19:38:39;589.40;2432.00
54946;DHT22;40846;44.788;20.486;2023-05-24T19:41:05;589.10;2432.00
54946;DHT22;40846;44.788;20.486;2023-05-24T20:54:23;589.20;2432.00
54946;DHT22;40846;44.788;20.486;2023-05-24T21:06:33;588.90;2432.00
54946;DHT22;40846;44.788;20.486;2023-05-24T21:08:58;563.90;2432.00
54946;DHT22;40846;44.788;20.486;2023-05-24T21:13:52;564.00;2432.00
54946;DHT22;40846;44.788;20.486;2023-05-24T21:16:18;563.80;2432.00
54946;DHT22;40846;44.788;20.486;2023-05-24T21:18:43;563.80;2432.00
54946;DHT22;40846;44.788;20.486;2023-05-24T21:21:09;563.80;2432.00
54946;DHT22;40846;44.788;20.486;2023-05-24T21:23:35;563.80;2432.00
54946;DHT22;40846;44.788;20.486;2023-05-24T21:26:01;563.80;2432.00
54946;DHT22;40846;44.788;20.486;2023-05-24T21:28:27;563.80;2432.00
54946;DHT22;40846;44.788;20.486;2023-05-24T21:30:57;563.80;2432.00
54946;DHT22;40846;44.788;20.486;2023-05-24T21:35:49;563.80;2432.00
54946;DHT22;40846;44.788;20.486;2023-05-24T21:38:14;563.60;2432.00
54946;DHT22;40846;44.788;20.486;2023-05-24T21:40:43;563.30;2432.00
54946;DHT22;40846;44.788;20.486;2023-05-24T23:48:41;537.90;2406.40
54946;DHT22;40846;44.788;20.486;2023-05-24T23:51:07;537.60;2406.40
54946;DHT22;40846;44.788;20.486;2023-05-24T23:53:35;512.90;2380.80
54946;DHT22;40846;44.788;20.486;2023-05-24T23:56:01;512.90;2380.80
54946;DHT22;40846;44.788;20.486;2023-05-24T23:58:26;512.90;2380.80
